Terminal Aerodrome Forecast
Issued by NWS

Home | Current Version | Previous Version | Text Only | Print | Product List | Glossary Off
Versions: 1 2 3 4 5 6 7 8 9 10 11 12 13 14 15 16

785
FTUS43 KMPX 222150 AAB
TAFRWF
TAF AMD
KRWF 222150Z 2222/2318 36016G26KT 1/2SM SN BLSN VV012
     FM222300 35018G26KT 2SM -SN BR OVC012
     FM230000 34018G26KT 3SM BLSN OVC015
     FM231200 32010KT P6SM SCT025=

USA.gov is the U.S. government's official web portal to all federal, state and local government web resources and services.